createdAt,value
2019-03-21T00:00:39.010Z,44.09
2019-03-21T00:02:03.468Z,44.08
2019-03-21T00:03:11.566Z,44.25
2019-03-21T00:04:19.930Z,44.26
2019-03-21T00:05:31.202Z,44.46
2019-03-21T00:06:39.400Z,44.40
2019-03-21T00:07:48.425Z,44.41
2019-03-21T00:08:56.420Z,44.57
2019-03-21T00:10:33.424Z,44.38
2019-03-21T00:12:11.214Z,44.85
2019-03-21T00:13:19.481Z,45.05
2019-03-21T00:14:40.789Z,45.01
2019-03-21T00:15:59.547Z,44.95
2019-03-21T00:17:15.355Z,45.20
2019-03-21T00:18:23.510Z,45.16
2019-03-21T00:19:31.610Z,45.27
2019-03-21T00:20:39.604Z,45.13
2019-03-21T00:21:47.734Z,45.18
2019-03-21T00:22:55.826Z,45.44
2019-03-21T00:24:03.894Z,45.30
2019-03-21T00:25:22.670Z,45.46
2019-03-21T00:26:31.410Z,45.31
2019-03-21T00:27:39.695Z,45.62
2019-03-21T00:28:48.077Z,45.70
2019-03-21T00:29:56.251Z,45.77
2019-03-21T00:31:04.453Z,45.94
2019-03-21T00:32:12.650Z,46.00
2019-03-21T00:33:21.157Z,46.15
2019-03-21T00:34:29.563Z,46.12
2019-03-21T00:35:38.654Z,46.34
2019-03-21T00:36:47.211Z,46.39
2019-03-21T00:37:55.289Z,46.51
2019-03-21T00:39:03.382Z,46.75
2019-03-21T00:40:30.699Z,46.79
2019-03-21T00:41:38.798Z,46.79
2019-03-21T00:42:47.643Z,46.97
2019-03-21T00:43:55.872Z,47.05
2019-03-21T00:45:05.377Z,47.23
2019-03-21T00:46:13.590Z,47.30
2019-03-21T00:47:21.797Z,47.28
2019-03-21T00:48:30.072Z,47.24
2019-03-21T00:49:38.086Z,47.40
2019-03-21T00:50:46.476Z,47.36
2019-03-21T00:51:54.589Z,47.42
2019-03-21T00:53:02.877Z,47.51
2019-03-21T00:54:11.018Z,47.57
2019-03-21T00:55:19.119Z,47.70
2019-03-21T00:56:27.363Z,47.69
2019-03-21T00:57:35.764Z,47.72
2019-03-21T00:58:43.853Z,47.64
2019-03-21T00:59:51.851Z,47.84
2019-03-21T01:01:07.145Z,47.77
2019-03-21T01:02:15.429Z,47.68
2019-03-21T01:03:24.129Z,47.77
2019-03-21T01:04:32.559Z,47.92
2019-03-21T01:05:40.475Z,48.00
2019-03-21T01:06:49.061Z,48.04
2019-03-21T01:07:57.080Z,48.06
2019-03-21T01:09:08.238Z,48.17
2019-03-21T01:10:29.002Z,48.05
2019-03-21T01:11:36.995Z,48.04
2019-03-21T01:12:45.817Z,48.09
2019-03-21T01:13:54.034Z,47.98
2019-03-21T01:15:02.042Z,47.95
2019-03-21T01:16:10.193Z,48.05
2019-03-21T01:17:18.406Z,48.01
2019-03-21T01:18:26.429Z,48.05
2019-03-21T01:19:34.417Z,47.97
2019-03-21T01:20:42.717Z,47.98
2019-03-21T01:21:51.095Z,48.00
2019-03-21T01:22:59.097Z,47.98
2019-03-21T01:24:07.215Z,47.84
2019-03-21T01:25:42.537Z,48.00
2019-03-21T01:26:51.040Z,47.90
2019-03-21T01:27:59.009Z,48.00
2019-03-21T01:29:07.131Z,48.19
2019-03-21T01:30:21.431Z,48.21
2019-03-21T01:31:29.576Z,48.18
2019-03-21T01:32:37.400Z,48.39
2019-03-21T01:33:45.569Z,48.38
2019-03-21T01:34:53.493Z,48.50
2019-03-21T01:36:02.589Z,48.43
2019-03-21T01:37:12.109Z,48.64
2019-03-21T01:38:20.505Z,48.80
2019-03-21T01:39:28.535Z,48.88
2019-03-21T01:40:52.369Z,48.96
2019-03-21T01:42:00.325Z,48.94
2019-03-21T01:43:08.713Z,49.22
2019-03-21T01:44:16.767Z,49.33
2019-03-21T01:45:27.294Z,49.32
2019-03-21T01:46:35.398Z,49.28
2019-03-21T01:47:43.533Z,49.46
2019-03-21T01:48:52.134Z,49.57
2019-03-21T01:50:00.398Z,49.65
2019-03-21T01:51:08.484Z,49.71
2019-03-21T01:52:16.578Z,49.83
2019-03-21T01:53:24.573Z,49.81
2019-03-21T01:54:32.807Z,49.89
2019-03-21T01:55:41.105Z,50.07
2019-03-21T01:56:49.767Z,50.12
2019-03-21T01:57:57.851Z,50.24
2019-03-21T01:59:05.841Z,50.27
2019-03-21T02:00:24.459Z,50.29
2019-03-21T02:01:32.512Z,50.34
2019-03-21T02:02:40.984Z,50.40
2019-03-21T02:03:49.580Z,50.37
2019-03-21T02:04:57.850Z,50.40
2019-03-21T02:06:05.992Z,50.28
2019-03-21T02:07:13.898Z,50.22
2019-03-21T02:08:21.955Z,50.22
2019-03-21T02:09:30.046Z,50.25
2019-03-21T02:10:38.063Z,50.29
2019-03-21T02:11:46.147Z,50.31
2019-03-21T02:12:54.401Z,50.11
2019-03-21T02:14:02.551Z,49.99
2019-03-21T02:15:19.743Z,50.08
2019-03-21T02:16:27.996Z,49.83
2019-03-21T02:17:36.144Z,49.85
2019-03-21T02:18:44.269Z,49.70
2019-03-21T02:19:52.643Z,49.42
2019-03-21T02:21:00.614Z,49.43
2019-03-21T02:22:10.506Z,49.25
2019-03-21T02:23:18.541Z,49.24
2019-03-21T02:24:26.944Z,49.21
2019-03-21T02:25:41.774Z,49.29
2019-03-21T02:26:50.247Z,49.26
2019-03-21T02:27:58.643Z,49.47
2019-03-21T02:29:06.680Z,49.35
2019-03-21T02:30:19.178Z,49.47
2019-03-21T02:31:27.257Z,49.33
2019-03-21T02:32:35.309Z,49.25
2019-03-21T02:33:47.339Z,49.30
2019-03-21T02:34:55.521Z,49.31
2019-03-21T02:36:07.264Z,49.30
2019-03-21T02:37:15.246Z,49.27
2019-03-21T02:38:23.201Z,49.15
2019-03-21T02:39:31.481Z,49.17
2019-03-21T02:40:40.212Z,49.29
2019-03-21T02:41:48.266Z,49.11
2019-03-21T02:42:56.819Z,49.05
2019-03-21T02:44:04.888Z,48.96
2019-03-21T02:45:16.357Z,48.90
2019-03-21T02:46:24.280Z,48.85
2019-03-21T02:47:32.656Z,48.95
2019-03-21T02:48:40.984Z,48.89
2019-03-21T02:49:48.919Z,48.94
2019-03-21T02:50:57.418Z,48.96
2019-03-21T02:52:05.463Z,48.97
2019-03-21T02:53:13.692Z,49.08
2019-03-21T02:54:21.788Z,49.14
2019-03-21T02:55:30.077Z,49.18
2019-03-21T02:56:38.383Z,49.22
2019-03-21T02:57:46.494Z,49.30
2019-03-21T02:58:54.883Z,49.33
2019-03-21T03:00:02.841Z,49.37
2019-03-21T03:01:10.978Z,49.42
2019-03-21T03:02:18.842Z,49.38
2019-03-21T03:03:26.966Z,49.27
2019-03-21T03:04:34.993Z,49.39
2019-03-21T03:05:43.047Z,49.22
2019-03-21T03:06:51.625Z,49.10
2019-03-21T03:07:59.964Z,49.02
2019-03-21T03:09:08.846Z,48.95
2019-03-21T03:10:33.154Z,48.94
2019-03-21T03:11:41.257Z,49.00
2019-03-21T03:12:49.624Z,48.96
2019-03-21T03:13:57.862Z,48.97
2019-03-21T03:15:22.042Z,48.95
2019-03-21T03:16:21.694Z,48.95
2019-03-21T03:17:29.822Z,48.79
2019-03-21T03:18:38.022Z,48.88
2019-03-21T03:19:45.951Z,48.89
2019-03-21T03:20:54.704Z,48.89
2019-03-21T03:22:02.611Z,48.91
2019-03-21T03:23:10.817Z,48.85
2019-03-21T03:24:19.220Z,48.88
2019-03-21T03:25:27.477Z,48.85
2019-03-21T03:26:35.732Z,48.79
2019-03-21T03:27:46.464Z,48.73
2019-03-21T03:28:54.870Z,48.80
2019-03-21T03:30:03.103Z,48.85
2019-03-21T03:31:11.264Z,48.87
2019-03-21T03:32:19.396Z,48.95
2019-03-21T03:33:28.132Z,48.97
2019-03-21T03:34:36.197Z,48.99
2019-03-21T03:35:44.297Z,49.10
2019-03-21T03:36:52.376Z,49.23
2019-03-21T03:38:00.478Z,49.21
2019-03-21T03:39:09.224Z,49.26
2019-03-21T03:40:24.675Z,49.40
2019-03-21T03:41:33.151Z,49.59
2019-03-21T03:42:41.139Z,49.68
2019-03-21T03:43:49.349Z,49.71
2019-03-21T03:44:57.570Z,49.77
2019-03-21T03:46:05.795Z,49.81
2019-03-21T03:47:13.551Z,49.89
2019-03-21T03:48:21.936Z,50.06
2019-03-21T03:49:30.000Z,50.05
2019-03-21T03:50:38.832Z,50.15
2019-03-21T03:51:47.190Z,50.26
2019-03-21T03:52:55.251Z,50.41
2019-03-21T03:54:03.554Z,50.49
2019-03-21T03:55:18.344Z,50.55
2019-03-21T03:56:26.729Z,50.47
2019-03-21T03:57:34.938Z,50.43
2019-03-21T03:58:47.319Z,50.39
2019-03-21T03:59:55.437Z,50.55
2019-03-21T04:01:03.728Z,50.57
2019-03-21T04:02:11.821Z,50.54
2019-03-21T04:03:20.018Z,50.47
2019-03-21T04:04:28.326Z,50.52
2019-03-21T04:05:36.537Z,50.41
2019-03-21T04:06:44.940Z,50.44
2019-03-21T04:07:53.610Z,50.44
2019-03-21T04:09:01.958Z,50.36
2019-03-21T04:10:23.359Z,50.34
2019-03-21T04:11:31.545Z,50.35
2019-03-21T04:12:39.760Z,50.38
2019-03-21T04:13:48.021Z,50.42
2019-03-21T04:14:56.052Z,50.37
2019-03-21T04:16:04.451Z,50.42
2019-03-21T04:17:12.476Z,50.40
2019-03-21T04:18:23.584Z,50.36
2019-03-21T04:19:31.813Z,50.35
2019-03-21T04:20:50.214Z,50.33
2019-03-21T04:21:58.873Z,50.42
2019-03-21T04:23:07.129Z,50.42
2019-03-21T04:24:15.630Z,50.40
2019-03-21T04:25:28.538Z,50.42
2019-03-21T04:26:39.752Z,50.52
2019-03-21T04:27:47.858Z,50.72
2019-03-21T04:28:55.875Z,50.80
2019-03-21T04:30:06.009Z,50.93
2019-03-21T04:31:14.296Z,51.00
2019-03-21T04:32:22.258Z,50.90
2019-03-21T04:33:30.593Z,51.02
2019-03-21T04:34:38.958Z,51.04
2019-03-21T04:35:47.395Z,51.07
2019-03-21T04:36:55.600Z,51.10
2019-03-21T04:38:03.698Z,51.16
2019-03-21T04:39:12.279Z,51.20
2019-03-21T04:40:20.626Z,51.17
2019-03-21T04:41:28.681Z,51.13
2019-03-21T04:42:36.804Z,51.12
2019-03-21T04:43:44.912Z,50.99
2019-03-21T04:44:53.007Z,51.00
2019-03-21T04:46:03.565Z,50.91
2019-03-21T04:47:11.301Z,50.95
2019-03-21T04:48:19.453Z,50.88
2019-03-21T04:49:27.633Z,50.96
2019-03-21T04:50:41.517Z,51.04
2019-03-21T04:51:49.558Z,51.13
2019-03-21T04:52:57.775Z,51.16
2019-03-21T04:54:06.524Z,51.16
2019-03-21T04:55:17.146Z,51.12
2019-03-21T04:56:25.458Z,51.22
2019-03-21T04:57:33.626Z,51.15
2019-03-21T04:58:41.927Z,51.17
2019-03-21T04:59:50.224Z,51.20
2019-03-21T05:00:59.787Z,51.02
2019-03-21T05:02:07.959Z,51.01
2019-03-21T05:03:28.513Z,51.07
2019-03-21T05:04:36.651Z,51.09
2019-03-21T05:05:44.938Z,50.99
2019-03-21T05:06:53.259Z,51.02
2019-03-21T05:08:02.089Z,51.00
2019-03-21T05:09:13.417Z,50.96
2019-03-21T05:10:21.192Z,51.01
2019-03-21T05:11:29.425Z,50.98
2019-03-21T05:12:37.946Z,50.89
2019-03-21T05:13:45.944Z,50.96
2019-03-21T05:14:54.226Z,51.00
2019-03-21T05:16:14.059Z,50.93
2019-03-21T05:17:12.784Z,50.87
2019-03-21T05:18:28.221Z,51.03
2019-03-21T05:19:36.360Z,50.90
2019-03-21T05:20:44.542Z,50.80
2019-03-21T05:21:52.781Z,50.80
2019-03-21T05:23:01.662Z,50.70
2019-03-21T05:24:09.605Z,50.66
2019-03-21T05:25:17.627Z,50.77
2019-03-21T05:26:26.057Z,50.63
2019-03-21T05:27:34.259Z,50.64
2019-03-21T05:28:42.356Z,50.38
2019-03-21T05:29:50.552Z,50.32
2019-03-21T05:31:18.320Z,50.25
2019-03-21T05:32:26.246Z,50.19
2019-03-21T05:33:34.132Z,50.08
2019-03-21T05:34:42.255Z,50.09
2019-03-21T05:35:50.703Z,50.11
2019-03-21T05:36:58.737Z,50.18
2019-03-21T05:38:07.091Z,50.21
2019-03-21T05:39:14.923Z,50.26
2019-03-21T05:40:23.287Z,50.22
2019-03-21T05:41:31.282Z,50.10
2019-03-21T05:42:39.683Z,50.13
2019-03-21T05:44:01.562Z,50.13
2019-03-21T05:45:20.148Z,50.00
2019-03-21T05:46:28.370Z,50.10
2019-03-21T05:47:36.524Z,50.05
2019-03-21T05:48:44.950Z,50.06
2019-03-21T05:49:53.115Z,50.02
2019-03-21T05:51:01.220Z,50.13
2019-03-21T05:52:09.658Z,50.06
2019-03-21T05:53:17.775Z,50.13
2019-03-21T05:54:26.147Z,50.21
2019-03-21T05:55:34.476Z,50.18
2019-03-21T05:56:42.453Z,50.17
2019-03-21T05:57:51.024Z,50.23
2019-03-21T05:58:58.877Z,50.23
2019-03-21T06:00:36.819Z,50.27
2019-03-21T06:01:45.248Z,50.26
2019-03-21T06:02:53.548Z,50.25
2019-03-21T06:04:01.956Z,50.45
2019-03-21T06:05:10.970Z,50.44
2019-03-21T06:06:25.971Z,50.40
2019-03-21T06:07:39.709Z,50.21
2019-03-21T06:08:48.002Z,50.13
2019-03-21T06:09:56.365Z,50.01
2019-03-21T06:11:04.926Z,50.03
2019-03-21T06:12:13.373Z,49.96
2019-03-21T06:13:21.747Z,49.98
2019-03-21T06:14:33.455Z,50.02
2019-03-21T06:15:44.954Z,50.07
2019-03-21T06:16:53.228Z,50.04
2019-03-21T06:18:46.723Z,50.19
2019-03-21T06:20:07.932Z,50.17
2019-03-21T06:21:41.721Z,50.12
2019-03-21T06:23:02.676Z,50.17
2019-03-21T06:24:24.360Z,50.34
2019-03-21T06:25:57.800Z,50.38
2019-03-21T06:27:28.122Z,50.34
2019-03-21T06:28:36.270Z,50.36
2019-03-21T06:29:44.739Z,50.02
2019-03-21T06:30:53.125Z,49.89
2019-03-21T06:32:01.504Z,50.16
2019-03-21T06:33:09.809Z,50.24
2019-03-21T06:34:17.919Z,50.03
2019-03-21T06:35:26.055Z,49.79
2019-03-21T06:36:34.652Z,49.62
2019-03-21T06:37:43.360Z,49.50
2019-03-21T06:38:51.725Z,49.28
2019-03-21T06:40:00.024Z,49.36
2019-03-21T06:41:08.793Z,49.14
2019-03-21T06:42:16.972Z,49.06
2019-03-21T06:43:25.496Z,49.01
2019-03-21T06:44:34.023Z,49.00
2019-03-21T06:45:47.951Z,49.17
2019-03-21T06:46:52.341Z,49.37
2019-03-21T06:48:00.837Z,49.02
2019-03-21T06:49:09.420Z,48.85
2019-03-21T06:50:17.987Z,48.91
2019-03-21T06:51:25.859Z,48.39
2019-03-21T06:52:34.406Z,48.02
2019-03-21T06:53:42.633Z,48.22
2019-03-21T06:54:51.383Z,48.49
2019-03-21T06:55:59.880Z,48.30
2019-03-21T06:57:08.216Z,48.42
2019-03-21T06:58:16.906Z,48.24
2019-03-21T06:59:25.048Z,48.08
2019-03-21T07:00:33.393Z,47.72
2019-03-21T07:01:41.589Z,47.62
2019-03-21T07:02:49.778Z,47.73
2019-03-21T07:04:06.631Z,47.75
2019-03-21T07:05:09.359Z,47.82
2019-03-21T07:06:17.239Z,47.57
2019-03-21T07:07:25.323Z,47.64
2019-03-21T07:08:34.155Z,47.65
2019-03-21T07:09:42.268Z,47.71
2019-03-21T07:10:50.349Z,47.46
2019-03-21T07:11:58.756Z,47.38
2019-03-21T07:13:06.828Z,47.65
2019-03-21T07:14:15.004Z,47.56
2019-03-21T07:15:23.122Z,47.55
2019-03-21T07:16:31.392Z,47.55
2019-03-21T07:17:39.555Z,47.79
2019-03-21T07:18:47.604Z,47.87
2019-03-21T07:19:55.947Z,47.76
2019-03-21T07:21:04.295Z,47.79
2019-03-21T07:22:12.639Z,48.08
2019-03-21T07:23:21.069Z,48.06
2019-03-21T07:24:29.357Z,48.16
2019-03-21T07:25:37.615Z,48.17
2019-03-21T07:26:45.758Z,48.30
2019-03-21T07:27:53.821Z,48.34
2019-03-21T07:29:02.039Z,48.09
2019-03-21T07:30:14.587Z,48.12
2019-03-21T07:31:22.568Z,47.57
2019-03-21T07:32:33.588Z,47.34
2019-03-21T07:33:40.489Z,47.50
2019-03-21T07:34:48.563Z,47.54
2019-03-21T07:35:56.574Z,47.47
2019-03-21T07:37:05.153Z,47.55
2019-03-21T07:38:13.551Z,47.24
2019-03-21T07:39:21.665Z,47.15
2019-03-21T07:40:29.474Z,47.06
2019-03-21T07:41:37.817Z,47.01
2019-03-21T07:42:46.189Z,47.12
2019-03-21T07:43:54.390Z,47.28
2019-03-21T07:45:02.384Z,47.38
2019-03-21T07:46:10.868Z,47.08
2019-03-21T07:47:19.168Z,47.35
2019-03-21T07:48:27.265Z,47.02
2019-03-21T07:49:35.296Z,47.04
2019-03-21T07:50:43.451Z,46.68
2019-03-21T07:51:51.877Z,46.74
2019-03-21T07:53:00.549Z,46.66
2019-03-21T07:54:08.999Z,46.74
2019-03-21T07:55:17.177Z,46.65
2019-03-21T07:56:25.180Z,46.64
2019-03-21T07:57:33.591Z,46.78
2019-03-21T07:58:41.746Z,46.68
2019-03-21T07:59:50.197Z,46.83
2019-03-21T08:00:58.392Z,46.90
2019-03-21T08:02:06.748Z,46.99
2019-03-21T08:03:15.429Z,47.08
2019-03-21T08:04:23.711Z,47.17
2019-03-21T08:05:39.684Z,47.22
2019-03-21T08:06:41.756Z,47.30
2019-03-21T08:07:50.147Z,47.37
2019-03-21T08:08:57.943Z,47.51
2019-03-21T08:10:12.998Z,47.64
2019-03-21T08:11:21.243Z,47.76
2019-03-21T08:12:29.686Z,47.74
2019-03-21T08:13:37.721Z,47.88
2019-03-21T08:14:45.943Z,48.09
2019-03-21T08:15:54.313Z,47.95
2019-03-21T08:17:02.585Z,48.00
2019-03-21T08:18:10.908Z,48.13
2019-03-21T08:19:18.922Z,48.26
2019-03-21T08:20:26.939Z,48.20
2019-03-21T08:21:35.203Z,48.26
2019-03-21T08:22:43.374Z,48.36
2019-03-21T08:23:51.557Z,48.45
2019-03-21T08:25:00.379Z,48.47
2019-03-21T08:26:08.564Z,48.60
2019-03-21T08:27:16.707Z,48.49
2019-03-21T08:28:24.990Z,48.61
2019-03-21T08:29:33.207Z,48.64
2019-03-21T08:31:06.192Z,48.68
2019-03-21T08:32:14.489Z,48.58
2019-03-21T08:33:22.320Z,48.72
2019-03-21T08:34:30.448Z,48.75
2019-03-21T08:35:38.408Z,48.76
2019-03-21T08:36:46.475Z,48.91
2019-03-21T08:37:54.651Z,48.90
2019-03-21T08:39:02.822Z,48.87
2019-03-21T08:40:11.258Z,48.92
2019-03-21T08:41:19.498Z,48.79
2019-03-21T08:42:27.598Z,48.59
2019-03-21T08:43:35.650Z,48.67
2019-03-21T08:44:43.662Z,48.78
2019-03-21T08:45:52.093Z,48.57
2019-03-21T08:47:00.224Z,48.53
2019-03-21T08:48:08.679Z,48.41
2019-03-21T08:49:16.714Z,48.38
2019-03-21T08:50:25.269Z,48.36
2019-03-21T08:51:33.450Z,48.36
2019-03-21T08:52:41.847Z,48.33
2019-03-21T08:53:50.751Z,48.44
2019-03-21T08:54:58.817Z,48.44
2019-03-21T08:56:07.288Z,48.29
2019-03-21T08:57:15.782Z,48.52
2019-03-21T08:58:23.803Z,47.94
2019-03-21T08:59:31.922Z,47.76
2019-03-21T09:00:40.024Z,47.37
2019-03-21T09:01:48.213Z,47.50
2019-03-21T09:02:56.467Z,46.89
2019-03-21T09:04:04.614Z,47.01
2019-03-21T09:05:13.179Z,46.90
2019-03-21T09:06:21.384Z,47.00
2019-03-21T09:07:29.641Z,47.13
2019-03-21T09:08:37.802Z,46.96
2019-03-21T09:09:45.933Z,47.02
2019-03-21T09:10:54.485Z,47.03
2019-03-21T09:12:02.411Z,46.83
2019-03-21T09:13:11.282Z,46.89
2019-03-21T09:14:19.299Z,46.88
2019-03-21T09:15:27.440Z,46.75
2019-03-21T09:16:35.791Z,46.79
2019-03-21T09:17:43.819Z,46.74
2019-03-21T09:18:52.301Z,46.63
2019-03-21T09:20:00.447Z,46.53
2019-03-21T09:21:18.879Z,46.26
2019-03-21T09:22:18.024Z,46.39
2019-03-21T09:23:26.062Z,46.29
2019-03-21T09:24:34.356Z,46.28
2019-03-21T09:25:44.335Z,46.14
2019-03-21T09:26:52.582Z,46.00
2019-03-21T09:28:02.985Z,45.77
2019-03-21T09:29:10.919Z,45.69
2019-03-21T09:30:18.836Z,45.45
2019-03-21T09:31:27.030Z,45.52
2019-03-21T09:32:35.078Z,45.56
2019-03-21T09:33:43.160Z,45.74
2019-03-21T09:34:52.127Z,45.92
2019-03-21T09:36:00.261Z,45.54
2019-03-21T09:37:08.460Z,45.75
2019-03-21T09:38:16.525Z,45.24
2019-03-21T09:39:24.655Z,45.31
2019-03-21T09:40:33.087Z,45.13
2019-03-21T09:41:41.031Z,45.16
2019-03-21T09:42:49.211Z,45.07
2019-03-21T09:43:57.306Z,45.14
2019-03-21T09:45:09.631Z,44.88
2019-03-21T09:46:18.023Z,44.86
2019-03-21T09:47:26.055Z,44.93
2019-03-21T09:48:34.218Z,45.09
2019-03-21T09:49:42.196Z,44.84
2019-03-21T09:50:50.331Z,45.08
2019-03-21T09:51:58.391Z,45.03
2019-03-21T09:53:06.955Z,44.87
2019-03-21T09:54:15.405Z,44.70
2019-03-21T09:55:23.743Z,44.72
2019-03-21T09:56:32.562Z,44.71
2019-03-21T09:57:40.623Z,44.71
2019-03-21T09:58:48.480Z,44.68
2019-03-21T09:59:56.348Z,44.71
2019-03-21T10:01:04.599Z,44.38
2019-03-21T10:02:12.857Z,44.39
2019-03-21T10:03:21.004Z,44.33
2019-03-21T10:04:29.218Z,44.58
2019-03-21T10:05:37.355Z,44.02
2019-03-21T10:06:45.356Z,43.78
2019-03-21T10:07:53.314Z,43.64
2019-03-21T10:09:01.376Z,43.24
2019-03-21T10:10:11.214Z,43.32
2019-03-21T10:11:19.462Z,42.90
2019-03-21T10:12:27.927Z,42.71
2019-03-21T10:13:36.046Z,42.73
2019-03-21T10:14:44.523Z,42.66
2019-03-21T10:15:52.926Z,42.86
2019-03-21T10:17:01.083Z,42.99
2019-03-21T10:18:09.324Z,42.59
2019-03-21T10:19:17.418Z,42.60
2019-03-21T10:20:25.750Z,42.40
2019-03-21T10:21:42.835Z,42.09
2019-03-21T10:22:43.869Z,42.01
2019-03-21T10:23:52.010Z,41.58
2019-03-21T10:24:59.998Z,41.63
2019-03-21T10:26:08.256Z,41.46
2019-03-21T10:27:16.963Z,41.60
2019-03-21T10:28:25.005Z,41.40
2019-03-21T10:29:33.175Z,41.46
2019-03-21T10:30:43.004Z,41.53
2019-03-21T10:31:51.563Z,41.64
2019-03-21T10:32:59.511Z,41.35
2019-03-21T10:34:07.759Z,41.34
2019-03-21T10:35:16.209Z,41.22
2019-03-21T10:36:25.333Z,41.39
2019-03-21T10:37:33.547Z,41.33
2019-03-21T10:38:41.728Z,41.54
2019-03-21T10:39:49.822Z,41.21
2019-03-21T10:40:58.225Z,41.36
2019-03-21T10:42:06.152Z,41.38
2019-03-21T10:43:15.237Z,41.49
2019-03-21T10:44:23.342Z,41.34
2019-03-21T10:45:31.518Z,41.61
2019-03-21T10:46:39.683Z,41.37
2019-03-21T10:47:48.135Z,41.44
2019-03-21T10:48:56.336Z,41.48
2019-03-21T10:50:06.529Z,40.96
2019-03-21T10:51:14.899Z,40.72
2019-03-21T10:52:23.274Z,40.87
2019-03-21T10:53:31.282Z,40.69
2019-03-21T10:54:39.503Z,40.22
2019-03-21T10:55:47.477Z,40.00
2019-03-21T10:56:55.727Z,39.67
2019-03-21T10:58:04.077Z,39.66
2019-03-21T10:59:12.124Z,39.66
2019-03-21T11:00:20.277Z,39.69
2019-03-21T11:01:30.014Z,39.71
2019-03-21T11:02:38.332Z,39.65
2019-03-21T11:03:46.413Z,39.83
2019-03-21T11:04:54.317Z,40.18
2019-03-21T11:06:02.351Z,39.72
2019-03-21T11:07:08.847Z,40.01
2019-03-21T11:08:17.063Z,40.00
2019-03-21T11:09:25.152Z,40.12
2019-03-21T11:10:33.172Z,39.79
2019-03-21T11:11:41.329Z,39.90
2019-03-21T11:12:49.376Z,40.00
2019-03-21T11:13:57.848Z,39.93
2019-03-21T11:15:07.599Z,39.88
2019-03-21T11:16:15.768Z,39.97
2019-03-21T11:17:23.719Z,40.09
2019-03-21T11:18:36.109Z,40.22
2019-03-21T11:19:41.520Z,40.04
2019-03-21T11:20:49.703Z,39.97
2019-03-21T11:22:05.687Z,40.10
2019-03-21T11:23:08.712Z,39.92
2019-03-21T11:24:17.138Z,40.15
2019-03-21T11:25:25.364Z,40.17
2019-03-21T11:26:33.505Z,40.08
2019-03-21T11:27:41.536Z,39.95
2019-03-21T11:28:49.599Z,39.98
2019-03-21T11:29:57.657Z,39.78
2019-03-21T11:31:05.881Z,40.00
2019-03-21T11:32:14.576Z,40.08
2019-03-21T11:33:22.659Z,39.82
2019-03-21T11:34:30.999Z,39.94
2019-03-21T11:35:39.339Z,40.12
2019-03-21T11:36:47.368Z,40.23
2019-03-21T11:37:55.487Z,40.26
2019-03-21T11:39:05.100Z,40.20
2019-03-21T11:40:13.159Z,40.00
2019-03-21T11:41:21.593Z,40.09
2019-03-21T11:42:29.591Z,40.09
2019-03-21T11:43:37.671Z,40.18
2019-03-21T11:44:45.688Z,40.03
2019-03-21T11:45:55.340Z,39.93
2019-03-21T11:47:03.679Z,40.04
2019-03-21T11:48:11.966Z,39.83
2019-03-21T11:49:19.995Z,39.83
2019-03-21T11:50:28.428Z,40.02
2019-03-21T11:51:36.834Z,40.21
2019-03-21T11:52:45.431Z,40.21
2019-03-21T11:53:53.723Z,40.04
2019-03-21T11:55:02.288Z,40.10
2019-03-21T11:56:12.875Z,39.76
2019-03-21T11:57:20.060Z,40.00
2019-03-21T11:58:28.314Z,39.71
2019-03-21T11:59:50.427Z,39.94
2019-03-21T12:00:46.729Z,39.93
2019-03-21T12:01:55.053Z,39.78
2019-03-21T12:03:04.362Z,39.75
2019-03-21T12:04:12.558Z,39.82
2019-03-21T12:05:20.765Z,39.72
2019-03-21T12:06:29.157Z,39.60
2019-03-21T12:07:37.376Z,39.60
2019-03-21T12:08:45.736Z,39.57
2019-03-21T12:09:53.726Z,39.62
2019-03-21T12:11:01.756Z,39.53
2019-03-21T12:12:09.849Z,39.82
2019-03-21T12:13:18.484Z,39.97
2019-03-21T12:14:26.353Z,40.17
2019-03-21T12:15:34.736Z,39.95
2019-03-21T12:16:42.820Z,40.04
2019-03-21T12:17:50.948Z,40.07
2019-03-21T12:18:59.041Z,40.00
2019-03-21T12:20:10.364Z,39.97
2019-03-21T12:21:18.884Z,39.99
2019-03-21T12:22:30.153Z,39.74
2019-03-21T12:23:36.961Z,39.90
2019-03-21T12:24:45.478Z,39.91
2019-03-21T12:25:53.776Z,39.91
2019-03-21T12:27:02.090Z,40.05
2019-03-21T12:28:10.335Z,39.71
2019-03-21T12:29:18.314Z,39.70
2019-03-21T12:30:38.047Z,39.76
2019-03-21T12:31:48.153Z,39.61
2019-03-21T12:32:56.486Z,39.34
2019-03-21T12:34:04.937Z,39.29
2019-03-21T12:35:13.393Z,39.28
2019-03-21T12:36:21.704Z,39.22
2019-03-21T12:37:29.914Z,39.39
2019-03-21T12:38:37.946Z,39.47
2019-03-21T12:39:46.098Z,39.64
2019-03-21T12:40:54.029Z,39.65
2019-03-21T12:42:02.193Z,39.81
2019-03-21T12:43:10.451Z,39.76
2019-03-21T12:44:19.060Z,40.02
2019-03-21T12:45:27.261Z,39.73
2019-03-21T12:46:35.481Z,39.35
2019-03-21T12:47:43.940Z,39.48
2019-03-21T12:48:52.079Z,39.99
2019-03-21T12:50:00.096Z,39.88
2019-03-21T12:51:08.565Z,40.06
2019-03-21T12:52:17.271Z,40.05
2019-03-21T12:53:25.377Z,39.70
2019-03-21T12:54:33.582Z,39.57
2019-03-21T12:55:41.892Z,39.48
2019-03-21T12:56:52.863Z,39.25
2019-03-21T12:57:59.679Z,39.34
2019-03-21T12:59:07.710Z,39.06
2019-03-21T13:00:18.534Z,39.28
2019-03-21T13:01:26.520Z,39.28
2019-03-21T13:02:34.685Z,39.38
2019-03-21T13:03:42.776Z,39.38
2019-03-21T13:04:50.754Z,39.36
2019-03-21T13:05:58.756Z,39.26
2019-03-21T13:07:06.919Z,39.50
2019-03-21T13:08:14.852Z,39.30
2019-03-21T13:09:23.260Z,39.36
2019-03-21T13:10:31.449Z,39.41
2019-03-21T13:11:39.306Z,39.56
2019-03-21T13:12:47.383Z,39.29
2019-03-21T13:13:55.446Z,39.40
2019-03-21T13:15:03.593Z,39.58
2019-03-21T13:16:11.518Z,39.77
2019-03-21T13:17:20.019Z,39.92
2019-03-21T13:18:28.032Z,39.69
2019-03-21T13:19:36.134Z,39.71
2019-03-21T13:20:44.746Z,39.79
2019-03-21T13:21:52.777Z,39.99
2019-03-21T13:23:00.924Z,39.80
2019-03-21T13:24:09.041Z,40.01
2019-03-21T13:25:17.330Z,40.04
2019-03-21T13:26:25.539Z,40.13
2019-03-21T13:27:33.621Z,40.18
2019-03-21T13:28:41.565Z,40.29
2019-03-21T13:29:49.540Z,40.35
2019-03-21T13:30:58.110Z,40.43
2019-03-21T13:32:06.314Z,40.56
2019-03-21T13:33:14.424Z,40.69
2019-03-21T13:34:23.016Z,40.51
2019-03-21T13:35:32.957Z,40.59
2019-03-21T13:36:41.152Z,40.69
2019-03-21T13:37:49.696Z,40.73
2019-03-21T13:38:58.074Z,40.73
2019-03-21T13:40:07.814Z,40.87
2019-03-21T13:41:15.776Z,40.77
2019-03-21T13:42:24.131Z,40.78
2019-03-21T13:43:32.203Z,41.02
2019-03-21T13:44:40.495Z,40.99
2019-03-21T13:45:48.575Z,41.04
2019-03-21T13:46:56.820Z,41.16
2019-03-21T13:48:05.030Z,41.25
2019-03-21T13:49:13.028Z,41.34
2019-03-21T13:50:21.317Z,41.57
2019-03-21T13:51:29.517Z,41.72
2019-03-21T13:52:37.798Z,41.89
2019-03-21T13:53:45.979Z,42.03
2019-03-21T13:54:54.519Z,42.08
2019-03-21T13:56:02.827Z,42.19
2019-03-21T13:57:11.126Z,42.24
2019-03-21T13:58:19.322Z,42.30
2019-03-21T13:59:27.458Z,42.30
2019-03-21T14:00:35.797Z,42.43
2019-03-21T14:01:43.977Z,42.48
2019-03-21T14:02:52.188Z,42.66
2019-03-21T14:04:01.891Z,42.69
2019-03-21T14:05:10.976Z,42.75
2019-03-21T14:06:18.976Z,42.84
2019-03-21T14:07:27.454Z,42.80
2019-03-21T14:08:35.776Z,42.84
2019-03-21T14:09:43.785Z,42.95
2019-03-21T14:10:51.790Z,42.92
2019-03-21T14:11:59.974Z,43.04
2019-03-21T14:13:08.159Z,43.01
2019-03-21T14:14:16.316Z,42.83
2019-03-21T14:15:24.569Z,42.96
2019-03-21T14:16:32.533Z,42.84
2019-03-21T14:17:41.268Z,42.99
2019-03-21T14:18:49.503Z,43.16
2019-03-21T14:19:57.482Z,43.33
2019-03-21T14:21:05.567Z,43.36
2019-03-21T14:22:13.637Z,43.33
2019-03-21T14:23:21.746Z,43.39
2019-03-21T14:24:29.946Z,43.59
2019-03-21T14:25:38.148Z,43.99
2019-03-21T14:26:46.392Z,43.96
2019-03-21T14:27:54.656Z,44.33
2019-03-21T14:29:12.223Z,44.51
2019-03-21T14:30:18.579Z,44.52
2019-03-21T14:31:27.231Z,44.49
2019-03-21T14:32:35.429Z,44.58
2019-03-21T14:33:43.444Z,44.67
2019-03-21T14:34:51.563Z,44.68
2019-03-21T14:35:59.591Z,44.50
2019-03-21T14:37:07.666Z,44.10
2019-03-21T14:38:25.924Z,44.34
2019-03-21T14:39:25.854Z,44.38
2019-03-21T14:40:34.052Z,44.38
2019-03-21T14:41:42.290Z,44.54
2019-03-21T14:42:50.362Z,44.68
2019-03-21T14:43:58.344Z,44.89
2019-03-21T14:45:09.614Z,44.81
2019-03-21T14:46:17.710Z,44.81
2019-03-21T14:47:35.862Z,44.94
2019-03-21T14:48:35.783Z,44.90
2019-03-21T14:49:43.938Z,45.12
2019-03-21T14:50:52.321Z,45.25